createdAt,value
2023-10-17T00:00:29.298Z,13.50
2023-10-17T00:02:57.965Z,14.18
2023-10-17T00:05:27.528Z,15.15
2023-10-17T00:07:59.484Z,13.88
2023-10-17T00:10:31.878Z,15.40
2023-10-17T00:13:19.937Z,14.80
2023-10-17T00:15:48.637Z,12.13
2023-10-17T00:18:20.137Z,16.90
2023-10-17T00:20:52.551Z,15.55
2023-10-17T00:23:22.412Z,16.02
2023-10-17T00:25:50.852Z,13.63
2023-10-17T00:28:21.423Z,12.57
2023-10-17T00:30:53.377Z,11.77
2023-10-17T00:33:24.839Z,14.80
2023-10-17T00:35:55.663Z,13.10
2023-10-17T00:38:24.321Z,19.30
2023-10-17T00:40:52.595Z,12.73
2023-10-17T00:43:21.273Z,13.85
2023-10-17T00:45:49.084Z,14.88
2023-10-17T00:48:21.775Z,13.07
2023-10-17T00:50:54.278Z,18.77
2023-10-17T00:53:23.859Z,13.82
2023-10-17T00:55:54.401Z,14.00
2023-10-17T00:58:23.121Z,13.85
2023-10-17T01:00:54.764Z,12.68
2023-10-17T01:03:25.907Z,15.82
2023-10-17T01:06:14.846Z,12.95
2023-10-17T01:08:46.782Z,12.40
2023-10-17T01:11:17.766Z,12.23
2023-10-17T01:13:45.877Z,15.50
2023-10-17T01:16:16.597Z,11.48
2023-10-17T01:18:46.629Z,13.27
2023-10-17T01:21:16.038Z,17.85
2023-10-17T01:23:45.247Z,15.40
2023-10-17T01:26:21.800Z,15.07
2023-10-17T01:28:50.521Z,12.57
2023-10-17T01:31:23.445Z,17.85
2023-10-17T01:33:53.246Z,12.85
2023-10-17T01:36:21.318Z,12.85
2023-10-17T01:38:50.656Z,14.95
2023-10-17T01:41:20.732Z,20.70
2023-10-17T01:43:49.242Z,16.92
2023-10-17T01:46:23.029Z,17.00
2023-10-17T01:48:54.840Z,16.40
2023-10-17T01:51:24.330Z,12.18
2023-10-17T01:53:53.032Z,15.23
2023-10-17T01:56:26.681Z,14.95
2023-10-17T01:58:56.342Z,18.15
2023-10-17T02:01:27.044Z,16.92
2023-10-17T02:03:59.883Z,16.52
2023-10-17T02:06:27.661Z,21.55
2023-10-17T02:08:56.320Z,13.00
2023-10-17T02:11:25.697Z,15.38
2023-10-17T02:13:54.872Z,14.95
2023-10-17T02:16:23.134Z,29.63
2023-10-17T02:18:50.978Z,12.77
2023-10-17T02:21:19.849Z,16.10
2023-10-17T02:23:50.981Z,12.60
2023-10-17T02:26:22.671Z,15.98
2023-10-17T02:28:55.260Z,14.13
2023-10-17T02:31:30.552Z,12.45
2023-10-17T02:33:58.792Z,16.30
2023-10-17T02:36:27.899Z,15.52
2023-10-17T02:38:55.834Z,14.73
2023-10-17T02:41:23.942Z,19.38
2023-10-17T02:43:54.700Z,16.10
2023-10-17T02:46:27.920Z,17.60
2023-10-17T02:48:56.142Z,12.15
2023-10-17T02:51:35.884Z,12.35
2023-10-17T02:54:06.439Z,16.67
2023-10-17T02:56:39.061Z,15.05
2023-10-17T02:59:08.139Z,16.20
2023-10-17T03:01:39.014Z,17.38
2023-10-17T03:04:11.266Z,20.15
2023-10-17T03:06:39.959Z,18.08
2023-10-17T03:09:33.425Z,13.88
2023-10-17T03:12:09.203Z,20.40
2023-10-17T03:14:41.936Z,16.65
2023-10-17T03:17:10.657Z,18.38
2023-10-17T03:19:39.632Z,15.60
2023-10-17T03:22:17.568Z,15.38
2023-10-17T03:24:45.606Z,17.17
2023-10-17T03:27:25.010Z,13.63
2023-10-17T03:29:52.977Z,14.27
2023-10-17T03:32:24.354Z,13.38
2023-10-17T03:34:57.914Z,18.33
2023-10-17T03:37:34.425Z,13.13
2023-10-17T03:40:17.034Z,18.23
2023-10-17T03:42:47.263Z,13.00
2023-10-17T03:45:19.207Z,16.58
2023-10-17T03:47:54.485Z,16.23
2023-10-17T03:50:35.856Z,17.60
2023-10-17T03:53:15.719Z,20.33
2023-10-17T03:55:44.933Z,19.63
2023-10-17T03:58:27.106Z,21.40
2023-10-17T04:00:56.325Z,17.42
2023-10-17T04:03:26.789Z,14.57
2023-10-17T04:06:03.150Z,20.38
2023-10-17T04:08:35.909Z,22.20
2023-10-17T04:11:10.234Z,20.27
2023-10-17T04:13:39.002Z,18.48
2023-10-17T04:16:10.906Z,23.50
2023-10-17T04:18:40.111Z,23.92
2023-10-17T04:21:19.172Z,20.40
2023-10-17T04:23:50.297Z,19.95
2023-10-17T04:26:20.731Z,18.52
2023-10-17T04:28:50.951Z,20.55
2023-10-17T04:31:26.348Z,17.13
2023-10-17T04:34:07.237Z,18.00
2023-10-17T04:36:38.808Z,22.15
2023-10-17T04:39:19.260Z,21.75
2023-10-17T04:42:07.820Z,18.50
2023-10-17T04:44:36.071Z,19.02
2023-10-17T04:47:21.997Z,19.27
2023-10-17T04:49:54.600Z,19.50
2023-10-17T04:52:24.268Z,18.98
2023-10-17T04:54:55.191Z,18.52
2023-10-17T04:57:22.705Z,22.75
2023-10-17T05:00:11.876Z,19.45
2023-10-17T05:02:41.353Z,23.08
2023-10-17T05:05:30.577Z,19.90
2023-10-17T05:08:12.745Z,23.02
2023-10-17T05:10:58.535Z,17.77
2023-10-17T05:13:43.857Z,20.45
2023-10-17T05:16:28.917Z,17.85
2023-10-17T05:19:14.181Z,18.45
2023-10-17T05:22:00.678Z,20.08
2023-10-17T05:24:46.152Z,22.17
2023-10-17T05:27:31.264Z,12.68
2023-10-17T05:30:16.486Z,17.40
2023-10-17T05:33:01.872Z,16.50
2023-10-17T05:35:55.321Z,15.93
2023-10-17T05:38:41.688Z,20.83
2023-10-17T05:41:27.094Z,21.80
2023-10-17T05:44:12.259Z,18.00
2023-10-17T05:46:57.302Z,14.82
2023-10-17T05:49:42.553Z,20.30
2023-10-17T05:52:28.025Z,18.80
2023-10-17T05:55:27.966Z,15.23
2023-10-17T05:58:15.797Z,18.85
2023-10-17T06:01:01.021Z,15.45
2023-10-17T06:03:46.544Z,15.38
2023-10-17T06:06:32.818Z,15.43
2023-10-17T06:09:18.348Z,17.70
2023-10-17T06:12:04.842Z,15.35
2023-10-17T06:14:49.990Z,15.30
2023-10-17T06:17:23.454Z,21.58
2023-10-17T06:19:51.847Z,13.95
2023-10-17T06:22:56.783Z,16.60
2023-10-17T06:25:50.359Z,15.75
2023-10-17T06:28:28.641Z,15.70
2023-10-17T06:31:14.390Z,14.40
2023-10-17T06:33:43.908Z,14.98
2023-10-17T06:36:14.968Z,19.42
2023-10-17T06:38:48.237Z,18.35
2023-10-17T06:41:28.777Z,17.05
2023-10-17T06:43:59.154Z,17.95
2023-10-17T06:46:41.479Z,20.23
2023-10-17T06:49:10.226Z,15.60
2023-10-17T06:51:40.690Z,18.55
2023-10-17T06:54:08.834Z,14.95
2023-10-17T06:56:45.494Z,20.33
2023-10-17T06:59:34.936Z,19.23
2023-10-17T07:02:11.655Z,14.52
2023-10-17T07:04:41.425Z,17.77
2023-10-17T07:07:10.955Z,13.77
2023-10-17T07:09:40.182Z,16.67
2023-10-17T07:12:14.498Z,15.95
2023-10-17T07:14:49.253Z,19.75
2023-10-17T07:17:27.059Z,18.15
2023-10-17T07:20:00.587Z,14.38
2023-10-17T07:22:36.317Z,14.43
2023-10-17T07:25:15.856Z,18.48
2023-10-17T07:27:45.296Z,16.23
2023-10-17T07:30:15.399Z,15.38
2023-10-17T07:32:50.543Z,19.23
2023-10-17T07:35:24.609Z,17.95
2023-10-17T07:38:00.188Z,17.88
2023-10-17T07:40:42.655Z,16.45
2023-10-17T07:43:10.489Z,16.52
2023-10-17T07:45:41.600Z,21.98
2023-10-17T07:48:25.229Z,19.55
2023-10-17T07:50:54.576Z,15.98
2023-10-17T07:53:23.654Z,17.13
2023-10-17T07:55:54.228Z,14.13
2023-10-17T07:58:35.946Z,13.73
2023-10-17T08:01:08.833Z,11.20
2023-10-17T08:03:41.620Z,10.65
2023-10-17T08:06:12.911Z,11.40
2023-10-17T08:08:44.744Z,9.30
2023-10-17T08:11:27.726Z,9.27
2023-10-17T08:13:56.558Z,11.60
2023-10-17T08:16:30.394Z,11.40
2023-10-17T08:19:14.002Z,10.30
2023-10-17T08:21:50.164Z,11.43
2023-10-17T08:24:27.448Z,9.88
2023-10-17T08:27:09.638Z,14.65
2023-10-17T08:29:39.048Z,9.10
2023-10-17T08:32:21.873Z,9.80
2023-10-17T08:34:50.492Z,16.00
2023-10-17T08:37:27.435Z,10.40
2023-10-17T08:39:54.314Z,17.13
2023-10-17T08:42:31.651Z,8.43
2023-10-17T08:45:05.235Z,8.63
2023-10-17T08:47:36.771Z,9.97
2023-10-17T08:50:06.838Z,10.77
2023-10-17T08:52:37.258Z,8.93
2023-10-17T08:55:05.856Z,10.80
2023-10-17T08:57:34.057Z,8.27
2023-10-17T09:00:15.720Z,7.77
2023-10-17T09:02:57.094Z,6.20
2023-10-17T09:05:27.667Z,7.40
2023-10-17T09:07:57.773Z,6.77
2023-10-17T09:10:29.612Z,6.73
2023-10-17T09:13:11.742Z,10.33
2023-10-17T09:15:49.212Z,10.70
2023-10-17T09:18:28.988Z,9.90
2023-10-17T09:20:57.682Z,8.23
2023-10-17T09:23:27.832Z,8.17
2023-10-17T09:25:56.832Z,8.93
2023-10-17T09:28:26.218Z,11.20
2023-10-17T09:31:04.485Z,10.40
2023-10-17T09:33:34.925Z,5.73
2023-10-17T09:36:26.285Z,7.20
2023-10-17T09:38:56.170Z,5.67
2023-10-17T09:41:24.127Z,5.10
2023-10-17T09:43:54.210Z,6.10
2023-10-17T09:49:49.521Z,6.40
2023-10-17T09:55:34.035Z,8.23
2023-10-17T09:58:09.343Z,6.30
2023-10-17T10:00:43.457Z,4.50
2023-10-17T10:03:15.611Z,8.43
2023-10-17T10:05:45.068Z,8.93
2023-10-17T10:08:33.225Z,6.20
2023-10-17T10:11:10.752Z,5.10
2023-10-17T10:14:03.921Z,7.30
2023-10-17T10:16:50.409Z,3.77
2023-10-17T10:19:18.685Z,5.83
2023-10-17T10:22:06.882Z,5.03
2023-10-17T10:24:37.815Z,4.90
2023-10-17T10:27:21.907Z,2.87
2023-10-17T10:29:53.895Z,4.20
2023-10-17T10:32:36.384Z,2.63
2023-10-17T10:35:06.786Z,4.93
2023-10-17T10:37:50.562Z,3.23
2023-10-17T10:40:25.271Z,5.60
2023-10-17T10:42:54.838Z,4.70
2023-10-17T10:45:33.019Z,3.17
2023-10-17T10:48:01.674Z,4.33
2023-10-17T10:50:31.691Z,3.90
2023-10-17T10:53:02.478Z,2.97
2023-10-17T10:55:31.506Z,4.13
2023-10-17T10:58:04.838Z,2.47
2023-10-17T11:00:33.064Z,4.77
2023-10-17T11:03:00.969Z,2.33
2023-10-17T11:05:28.815Z,1.90
2023-10-17T11:08:04.371Z,1.93
2023-10-17T11:10:32.757Z,2.03
2023-10-17T11:13:00.645Z,2.97
2023-10-17T11:15:29.241Z,1.53
2023-10-17T11:18:09.060Z,2.23
2023-10-17T11:20:37.416Z,5.87
2023-10-17T11:23:10.365Z,3.43
2023-10-17T11:25:39.131Z,3.23
2023-10-17T11:28:08.845Z,2.80
2023-10-17T11:30:41.849Z,4.63
2023-10-17T11:33:13.126Z,3.60
2023-10-17T11:35:48.280Z,3.33
2023-10-17T11:38:43.653Z,5.30
2023-10-17T11:41:16.608Z,6.20
2023-10-17T11:43:52.396Z,3.50
2023-10-17T11:46:29.753Z,4.00
2023-10-17T11:49:23.249Z,3.57
2023-10-17T11:51:52.848Z,4.17
2023-10-17T11:57:32.598Z,3.93
2023-10-17T12:00:07.662Z,4.20
2023-10-17T12:02:43.086Z,5.50
2023-10-17T12:05:18.987Z,5.70
2023-10-17T12:07:55.652Z,4.60
2023-10-17T12:10:30.910Z,4.20
2023-10-17T12:13:07.673Z,3.77
2023-10-17T12:15:35.434Z,6.23
2023-10-17T12:18:03.204Z,3.93
2023-10-17T12:20:31.411Z,3.53
2023-10-17T12:23:00.761Z,3.80
2023-10-17T12:25:29.052Z,4.80
2023-10-17T12:27:58.194Z,3.57
2023-10-17T12:30:29.623Z,5.93
2023-10-17T12:32:57.953Z,4.70
2023-10-17T12:35:29.166Z,4.10
2023-10-17T12:37:59.053Z,3.77
2023-10-17T12:40:27.618Z,5.53
2023-10-17T12:42:56.861Z,7.93
2023-10-17T12:45:25.864Z,4.43
2023-10-17T12:47:55.633Z,4.87
2023-10-17T12:50:24.925Z,4.97
2023-10-17T12:52:52.720Z,4.90
2023-10-17T12:55:21.260Z,5.77
2023-10-17T12:57:49.113Z,6.67
2023-10-17T13:00:17.726Z,6.10
2023-10-17T13:02:45.619Z,6.80
2023-10-17T13:05:15.678Z,6.10
2023-10-17T13:07:43.621Z,7.00
2023-10-17T13:10:13.226Z,6.40
2023-10-17T13:12:41.562Z,5.43
2023-10-17T13:15:10.591Z,8.00
2023-10-17T13:17:38.494Z,4.97
2023-10-17T13:20:08.963Z,4.83
2023-10-17T13:22:43.265Z,5.03
2023-10-17T13:25:12.583Z,6.43
2023-10-17T13:27:40.306Z,7.10
2023-10-17T13:30:09.176Z,8.63
2023-10-17T13:32:37.025Z,5.53
2023-10-17T13:35:05.763Z,4.87
2023-10-17T13:37:33.499Z,6.23
2023-10-17T13:40:04.051Z,5.20
2023-10-17T13:42:33.383Z,7.03
2023-10-17T13:45:01.548Z,4.20
2023-10-17T13:47:29.277Z,6.37
2023-10-17T13:49:56.958Z,6.10
2023-10-17T13:52:26.024Z,5.77
2023-10-17T13:54:54.426Z,9.30
2023-10-17T13:57:23.467Z,6.73
2023-10-17T13:59:54.707Z,14.43
2023-10-17T14:02:22.878Z,4.60
2023-10-17T14:04:50.698Z,4.07
2023-10-17T14:07:19.409Z,5.03
2023-10-17T14:09:47.498Z,6.23
2023-10-17T14:12:15.412Z,8.37
2023-10-17T14:14:44.476Z,5.20
2023-10-17T14:17:12.323Z,6.23
2023-10-17T14:19:45.995Z,4.40
2023-10-17T14:22:34.589Z,5.00
2023-10-17T14:25:06.017Z,4.20
2023-10-17T14:27:33.433Z,6.70
2023-10-17T14:30:06.595Z,3.90
2023-10-17T14:32:33.493Z,3.97
2023-10-17T14:35:01.276Z,4.60
2023-10-17T14:37:29.419Z,5.30
2023-10-17T14:39:57.326Z,6.27
2023-10-17T14:42:28.550Z,5.40
2023-10-17T14:44:56.649Z,3.13
2023-10-17T14:47:26.199Z,3.57
2023-10-17T14:49:54.014Z,4.73
2023-10-17T14:52:23.330Z,4.90
2023-10-17T14:54:51.734Z,7.43
2023-10-17T14:57:20.180Z,3.87
2023-10-17T14:59:47.926Z,4.10
2023-10-17T15:02:16.396Z,3.57
2023-10-17T15:04:45.629Z,5.60
2023-10-17T15:07:14.097Z,4.87
2023-10-17T15:09:43.695Z,5.30
2023-10-17T15:12:11.491Z,7.33
2023-10-17T15:14:39.203Z,3.50
2023-10-17T15:17:06.883Z,3.83
2023-10-17T15:19:34.925Z,3.70
2023-10-17T15:22:04.510Z,4.10
2023-10-17T15:24:32.259Z,3.37
2023-10-17T15:27:02.601Z,4.50
2023-10-17T15:29:30.503Z,3.53
2023-10-17T15:31:59.118Z,8.67
2023-10-17T15:34:28.914Z,3.50
2023-10-17T15:36:57.435Z,3.57
2023-10-17T15:39:30.961Z,4.23
2023-10-17T15:41:59.143Z,3.87
2023-10-17T15:44:26.885Z,3.67
2023-10-17T15:46:55.558Z,5.20
2023-10-17T15:49:23.268Z,4.43
2023-10-17T15:51:51.070Z,4.10
2023-10-17T15:54:18.829Z,2.80
2023-10-17T15:56:50.103Z,4.20
2023-10-17T15:59:18.078Z,6.50
2023-10-17T16:01:46.495Z,3.20
2023-10-17T16:04:14.877Z,3.90
2023-10-17T16:06:47.008Z,4.47
2023-10-17T16:09:16.770Z,3.40
2023-10-17T16:11:44.790Z,3.47
2023-10-17T16:14:14.416Z,4.53
2023-10-17T16:16:42.195Z,4.97
2023-10-17T16:19:09.945Z,4.17
2023-10-17T16:21:37.649Z,3.23
2023-10-17T16:24:08.001Z,3.50
2023-10-17T16:26:36.574Z,5.27
2023-10-17T16:29:05.583Z,2.93
2023-10-17T16:31:34.841Z,3.93
2023-10-17T16:34:02.753Z,2.90
2023-10-17T16:36:30.690Z,3.80
2023-10-17T16:38:58.389Z,4.50
2023-10-17T16:41:26.843Z,4.50
2023-10-17T16:43:54.800Z,5.97
2023-10-17T16:46:29.987Z,3.40
2023-10-17T16:49:00.756Z,5.23
2023-10-17T16:51:29.529Z,7.20
2023-10-17T16:53:58.014Z,4.00
2023-10-17T16:56:25.742Z,5.10
2023-10-17T16:58:55.900Z,4.63
2023-10-17T17:01:24.613Z,4.40
2023-10-17T17:03:52.345Z,4.13
2023-10-17T17:06:21.528Z,3.70
2023-10-17T17:08:49.251Z,5.27
2023-10-17T17:11:16.918Z,4.43
2023-10-17T17:13:44.618Z,4.77
2023-10-17T17:16:12.659Z,7.63
2023-10-17T17:18:47.927Z,4.63
2023-10-17T17:21:17.141Z,7.00
2023-10-17T17:23:46.873Z,6.13
2023-10-17T17:26:18.122Z,5.80
2023-10-17T17:28:46.154Z,5.15
2023-10-17T17:31:14.805Z,9.32
2023-10-17T17:33:43.488Z,5.65
2023-10-17T17:36:12.034Z,4.63
2023-10-17T17:38:40.925Z,8.57
2023-10-17T17:41:10.134Z,5.90
2023-10-17T17:43:37.811Z,6.67
2023-10-17T17:46:06.357Z,5.93
2023-10-17T17:48:35.868Z,7.38
2023-10-17T17:51:04.695Z,5.23
2023-10-17T17:53:32.496Z,4.53
2023-10-17T17:56:00.357Z,5.70
2023-10-17T17:58:29.943Z,5.28
2023-10-17T18:00:59.252Z,6.97
2023-10-17T18:03:28.541Z,6.32
2023-10-17T18:05:56.630Z,6.35
2023-10-17T18:08:26.039Z,6.78
2023-10-17T18:10:53.710Z,6.00
2023-10-17T18:13:21.537Z,7.38
2023-10-17T18:15:54.637Z,8.15
2023-10-17T18:18:22.466Z,6.63
2023-10-17T18:20:50.425Z,7.75
2023-10-17T18:23:19.177Z,6.60
2023-10-17T18:25:46.839Z,10.98
2023-10-17T18:28:14.589Z,10.23
2023-10-17T18:30:42.416Z,8.07
2023-10-17T18:33:12.094Z,7.15
2023-10-17T18:35:39.802Z,6.88
2023-10-17T18:38:08.650Z,9.93
2023-10-17T18:40:38.683Z,8.95
2023-10-17T18:43:06.719Z,7.80
2023-10-17T18:45:35.082Z,7.07
2023-10-17T18:48:02.954Z,8.52
2023-10-17T18:50:32.430Z,7.45
2023-10-17T18:53:00.506Z,7.70
2023-10-17T18:55:28.236Z,9.10
2023-10-17T18:57:56.913Z,9.55
2023-10-17T19:00:25.018Z,6.75
2023-10-17T19:02:52.818Z,10.38
2023-10-17T19:05:20.589Z,7.75
2023-10-17T19:07:50.092Z,7.43
2023-10-17T19:10:20.217Z,10.25
2023-10-17T19:12:52.878Z,9.20
2023-10-17T19:15:21.830Z,9.68
2023-10-17T19:17:50.504Z,6.85
2023-10-17T19:20:18.583Z,7.03
2023-10-17T19:22:46.390Z,8.38
2023-10-17T19:25:15.526Z,8.48
2023-10-17T19:27:43.329Z,9.18
2023-10-17T19:30:12.880Z,12.25
2023-10-17T19:32:41.379Z,13.05
2023-10-17T19:35:09.290Z,8.30
2023-10-17T19:37:36.921Z,7.32
2023-10-17T19:40:05.736Z,7.60
2023-10-17T19:42:34.805Z,8.02
2023-10-17T19:45:04.231Z,8.90
2023-10-17T19:47:32.521Z,9.15
2023-10-17T19:50:00.312Z,8.27
2023-10-17T19:52:28.074Z,10.95
2023-10-17T19:54:56.367Z,11.82
2023-10-17T19:57:24.114Z,9.18
2023-10-17T19:59:53.291Z,12.90
2023-10-17T20:02:21.480Z,10.13
2023-10-17T20:04:49.328Z,8.07
2023-10-17T20:07:17.233Z,9.95
2023-10-17T20:09:44.928Z,8.25
2023-10-17T20:12:13.250Z,10.75
2023-10-17T20:14:40.930Z,10.35
2023-10-17T20:17:11.040Z,9.30
2023-10-17T20:19:38.902Z,9.35
2023-10-17T20:22:08.000Z,11.93
2023-10-17T20:24:35.782Z,7.90
2023-10-17T20:27:04.418Z,9.00
2023-10-17T20:29:32.207Z,8.57
2023-10-17T20:31:59.972Z,9.90
2023-10-17T20:34:30.155Z,10.60
2023-10-17T20:36:57.776Z,10.18
2023-10-17T20:39:27.968Z,8.32
2023-10-17T20:41:55.893Z,8.10
2023-10-17T20:44:23.826Z,12.45
2023-10-17T20:46:51.585Z,11.10
2023-10-17T20:49:19.789Z,8.98
2023-10-17T20:51:48.842Z,13.63
2023-10-17T20:54:16.522Z,9.70
2023-10-17T20:56:44.943Z,14.15
2023-10-17T20:59:14.276Z,8.77
2023-10-17T21:01:42.014Z,9.73
2023-10-17T21:04:09.932Z,10.90
2023-10-17T21:06:37.779Z,9.10
2023-10-17T21:09:07.157Z,8.25
2023-10-17T21:11:34.912Z,8.82
2023-10-17T21:14:02.626Z,12.60
2023-10-17T21:16:30.402Z,15.10
2023-10-17T21:18:58.702Z,10.40
2023-10-17T21:21:27.022Z,11.35
2023-10-17T21:23:54.798Z,13.40
2023-10-17T21:26:25.011Z,9.45
2023-10-17T21:28:52.710Z,11.02
2023-10-17T21:31:20.465Z,12.38
2023-10-17T21:33:48.232Z,9.40
2023-10-17T21:36:15.949Z,9.45
2023-10-17T21:38:43.881Z,9.80
2023-10-17T21:41:11.592Z,11.07
2023-10-17T21:43:40.694Z,8.90
2023-10-17T21:46:08.964Z,9.20
2023-10-17T21:48:37.349Z,17.17
2023-10-17T21:53:37.944Z,9.20
2023-10-17T21:56:07.149Z,10.35
2023-10-17T21:58:36.380Z,13.40
2023-10-17T22:01:11.225Z,11.65
2023-10-17T22:03:42.497Z,9.75
2023-10-17T22:06:11.358Z,9.85
2023-10-17T22:08:40.158Z,9.90
2023-10-17T22:11:13.964Z,10.05
2023-10-17T22:13:42.553Z,12.48
2023-10-17T22:16:13.634Z,10.75
2023-10-17T22:18:41.922Z,10.35
2023-10-17T22:21:10.315Z,10.48
2023-10-17T22:23:38.412Z,10.30
2023-10-17T22:26:07.242Z,10.55
2023-10-17T22:28:35.881Z,10.00
2023-10-17T22:31:04.208Z,11.02
2023-10-17T22:33:33.649Z,10.82
2023-10-17T22:36:01.674Z,8.85
2023-10-17T22:38:30.891Z,12.90
2023-10-17T22:40:58.697Z,9.57
2023-10-17T22:43:26.453Z,11.15
2023-10-17T22:45:54.198Z,11.70
2023-10-17T22:48:22.292Z,10.13
2023-10-17T22:50:51.556Z,15.18
2023-10-17T22:53:19.240Z,12.63
2023-10-17T22:55:46.878Z,11.30
2023-10-17T22:58:14.595Z,10.40
2023-10-17T23:00:42.421Z,13.05
2023-10-17T23:03:10.327Z,11.98
2023-10-17T23:05:39.350Z,12.00
2023-10-17T23:08:09.523Z,10.20
2023-10-17T23:10:37.253Z,11.77
2023-10-17T23:13:05.085Z,11.05
2023-10-17T23:15:32.986Z,11.20
2023-10-17T23:18:00.879Z,13.18
2023-10-17T23:20:29.444Z,11.43
2023-10-17T23:22:57.126Z,12.18
2023-10-17T23:25:27.794Z,8.82
2023-10-17T23:27:57.200Z,14.07
2023-10-17T23:30:25.244Z,11.40
2023-10-17T23:32:52.991Z,13.45
2023-10-17T23:35:20.862Z,10.75
2023-10-17T23:37:50.993Z,11.57
2023-10-17T23:40:19.272Z,13.90
2023-10-17T23:42:48.849Z,11.55
2023-10-17T23:45:18.877Z,10.38
2023-10-17T23:47:48.158Z,10.38
2023-10-17T23:50:17.895Z,11.23
2023-10-17T23:52:46.439Z,12.98
2023-10-17T23:55:14.583Z,11.07
2023-10-17T23:57:46.822Z,13.70
